Terminal Aerodrome Forecast
Issued by NWS Tulsa, OK

Home | Current Version | Previous Version | Text Only | Print | Product List | Glossary On
Versions: 1 2 3 4 5 6 7 8 9 10 11 12 13 14 15 16 17 18
000
FTUS44 KTSA 221700
TAFFSM
TAF
KFSM 221720Z 2218/2318 00000KT P6SM FEW025
     FM230000 VRB03KT P6SM SKC
     FM231100 11004KT P6SM BKN150 PROB30 2315/2318 5SM -TSRA
      BKN035CB=

USA.gov is the U.S. government's official web portal to all federal, state and local government web resources and services.